createdAt,value
2023-02-23T00:10:19.978Z,90.0
2023-02-23T00:19:02.914Z,90.0
2023-02-23T00:32:22.520Z,91.0
2023-02-23T00:46:22.454Z,92.0
2023-02-23T00:53:33.349Z,92.0
2023-02-23T01:01:49.888Z,91.0
2023-02-23T01:12:41.442Z,91.0
2023-02-23T01:19:32.019Z,91.0
2023-02-23T01:26:27.322Z,91.0
2023-02-23T01:35:55.079Z,92.0
2023-02-23T01:47:24.974Z,91.0
2023-02-23T01:57:52.225Z,91.0
2023-02-23T02:11:52.287Z,91.0
2023-02-23T02:30:10.384Z,90.0
2023-02-23T02:35:33.430Z,90.0
2023-02-23T02:43:39.824Z,91.0
2023-02-23T02:58:09.841Z,91.0
2023-02-23T03:06:03.950Z,91.0
2023-02-23T03:13:45.165Z,91.0
2023-02-23T03:25:43.739Z,91.0
2023-02-23T03:33:55.054Z,91.0
2023-02-23T03:41:59.122Z,90.0
2023-02-23T03:47:43.545Z,90.0
2023-02-23T03:54:10.490Z,90.0
2023-02-23T04:08:10.692Z,91.0
2023-02-23T04:22:10.871Z,91.0
2023-02-23T04:36:10.901Z,91.0
2023-02-23T04:48:22.359Z,91.0
2023-02-23T05:03:59.761Z,91.0
2023-02-23T05:17:45.633Z,91.0
2023-02-23T05:24:10.376Z,91.0
2023-02-23T05:30:36.994Z,91.0
2023-02-23T05:35:42.194Z,91.0
2023-02-23T05:49:42.122Z,92.0
2023-02-23T05:55:47.193Z,92.0
2023-02-23T06:09:22.309Z,92.0
2023-02-23T06:24:22.310Z,92.0
2023-02-23T06:33:52.266Z,92.0
2023-02-23T06:48:52.298Z,92.0
2023-02-23T07:10:02.976Z,92.0
2023-02-23T07:18:18.833Z,92.0
2023-02-23T07:33:18.779Z,90.0
2023-02-23T07:42:09.827Z,90.0
2023-02-23T07:55:39.871Z,88.0
2023-02-23T08:04:05.348Z,88.0
2023-02-23T08:14:16.392Z,87.0
2023-02-23T08:21:38.485Z,87.0
2023-02-23T08:36:38.826Z,86.0
2023-02-23T08:51:28.686Z,84.0
2023-02-23T09:06:28.862Z,81.0
2023-02-23T09:21:32.185Z,77.0
2023-02-23T09:36:32.112Z,73.0
2023-02-23T09:48:35.761Z,73.0
2023-02-23T10:03:35.670Z,75.0
2023-02-23T10:12:56.709Z,74.0
2023-02-23T10:27:56.758Z,72.0
2023-02-23T11:00:37.841Z,65.0
2023-02-23T11:10:20.993Z,66.0
2023-02-23T11:27:19.812Z,64.0
2023-02-23T11:36:22.746Z,62.0
2023-02-23T11:50:39.539Z,61.0
2023-02-23T12:05:39.567Z,62.0
2023-02-23T12:18:03.609Z,62.0
2023-02-23T12:33:03.930Z,63.0
2023-02-23T12:43:02.301Z,63.0
2023-02-23T13:02:11.965Z,62.0
2023-02-23T13:07:33.471Z,63.0
2023-02-23T13:25:13.125Z,66.0
2023-02-23T13:40:14.087Z,67.0
2023-02-23T13:48:27.863Z,68.0
2023-02-23T14:02:45.209Z,69.0
2023-02-23T14:08:38.400Z,69.0
2023-02-23T14:24:46.355Z,71.0
2023-02-23T14:31:59.210Z,72.0
2023-02-23T14:45:59.240Z,73.0
2023-02-23T15:07:06.807Z,76.0
2023-02-23T15:22:04.923Z,77.0
2023-02-23T15:52:18.148Z,79.0
2023-02-23T15:59:14.503Z,80.0
2023-02-23T16:13:00.166Z,81.0
2023-02-23T16:25:19.367Z,81.0
2023-02-23T16:34:45.049Z,82.0
2023-02-23T16:45:36.578Z,83.0
2023-02-23T17:00:36.766Z,84.0
2023-02-23T17:09:46.138Z,85.0
2023-02-23T17:18:02.003Z,86.0
2023-02-23T17:30:30.363Z,87.0
2023-02-23T17:44:30.619Z,89.0
2023-02-23T17:52:21.279Z,89.0
2023-02-23T18:06:25.074Z,91.0
2023-02-23T18:14:07.839Z,91.0
2023-02-23T18:24:48.610Z,93.0
2023-02-23T18:35:09.457Z,92.0
2023-02-23T18:48:56.757Z,93.0
2023-02-23T18:54:26.512Z,93.0
2023-02-23T19:00:44.307Z,93.0
2023-02-23T19:06:56.914Z,93.0
2023-02-23T19:20:56.948Z,92.0
2023-02-23T19:34:27.898Z,93.0
2023-02-23T19:47:24.165Z,93.0
2023-02-23T19:51:51.950Z,93.0
2023-02-23T19:58:50.015Z,93.0
2023-02-23T20:07:29.656Z,93.0
2023-02-23T20:25:12.384Z,93.0
2023-02-23T20:46:03.584Z,94.0
2023-02-23T20:52:49.398Z,94.0
2023-02-23T21:00:04.747Z,94.0
2023-02-23T21:18:30.696Z,94.0
2023-02-23T21:32:30.682Z,94.0
2023-02-23T21:50:11.047Z,93.0
2023-02-23T22:00:34.932Z,92.0
2023-02-23T22:19:28.991Z,92.0
2023-02-23T22:24:42.563Z,92.0
2023-02-23T22:38:42.559Z,92.0
2023-02-23T22:56:01.160Z,92.0
2023-02-23T23:01:36.649Z,92.0
2023-02-23T23:13:32.453Z,91.0
2023-02-23T23:32:59.902Z,91.0
2023-02-23T23:46:18.125Z,91.0
2023-02-23T23:57:53.399Z,91.0
